sensor_id;sensor_type;location;lat;lon;timestamp;P1;durP1;ratioP1;P2;durP2;ratioP2
74344;SDS011;62776;50.518;6.732;2023-04-15T00:00:28;2.20;;;1.20;;
74344;SDS011;62776;50.518;6.732;2023-04-15T00:03:45;1.98;;;1.35;;
74344;SDS011;62776;50.518;6.732;2023-04-15T00:07:05;2.42;;;1.40;;
74344;SDS011;62776;50.518;6.732;2023-04-15T00:09:52;2.38;;;1.55;;
74344;SDS011;62776;50.518;6.732;2023-04-15T00:12:41;1.63;;;1.40;;
74344;SDS011;62776;50.518;6.732;2023-04-15T00:15:28;3.20;;;1.50;;
74344;SDS011;62776;50.518;6.732;2023-04-15T00:18:16;3.30;;;1.48;;
74344;SDS011;62776;50.518;6.732;2023-04-15T00:21:08;3.47;;;1.35;;
74344;SDS011;62776;50.518;6.732;2023-04-15T00:23:54;2.03;;;1.55;;
74344;SDS011;62776;50.518;6.732;2023-04-15T00:27:09;2.72;;;1.75;;
74344;SDS011;62776;50.518;6.732;2023-04-15T00:30:02;2.47;;;1.58;;
74344;SDS011;62776;50.518;6.732;2023-04-15T00:40:16;2.15;;;1.50;;
74344;SDS011;62776;50.518;6.732;2023-04-15T00:43:04;4.15;;;1.25;;
74344;SDS011;62776;50.518;6.732;2023-04-15T00:45:52;1.20;;;1.10;;
74344;SDS011;62776;50.518;6.732;2023-04-15T00:48:42;3.08;;;1.13;;
74344;SDS011;62776;50.518;6.732;2023-04-15T00:51:34;2.67;;;1.17;;
74344;SDS011;62776;50.518;6.732;2023-04-15T00:56:39;2.42;;;1.40;;
74344;SDS011;62776;50.518;6.732;2023-04-15T00:59:35;2.22;;;1.10;;
74344;SDS011;62776;50.518;6.732;2023-04-15T01:02:25;2.60;;;1.30;;
74344;SDS011;62776;50.518;6.732;2023-04-15T01:05:13;1.17;;;0.98;;
74344;SDS011;62776;50.518;6.732;2023-04-15T01:08:08;2.83;;;1.13;;
74344;SDS011;62776;50.518;6.732;2023-04-15T01:13:17;1.67;;;1.00;;
74344;SDS011;62776;50.518;6.732;2023-04-15T01:16:04;1.40;;;1.08;;
74344;SDS011;62776;50.518;6.732;2023-04-15T01:18:53;1.42;;;1.33;;
74344;SDS011;62776;50.518;6.732;2023-04-15T01:21:40;3.35;;;1.30;;
74344;SDS011;62776;50.518;6.732;2023-04-15T01:24:33;1.83;;;1.20;;
74344;SDS011;62776;50.518;6.732;2023-04-15T01:27:23;3.30;;;1.58;;
74344;SDS011;62776;50.518;6.732;2023-04-15T01:30:10;1.25;;;1.13;;
74344;SDS011;62776;50.518;6.732;2023-04-15T01:32:56;1.80;;;1.00;;
74344;SDS011;62776;50.518;6.732;2023-04-15T01:35:50;1.67;;;0.90;;
74344;SDS011;62776;50.518;6.732;2023-04-15T01:38:40;1.40;;;1.27;;
74344;SDS011;62776;50.518;6.732;2023-04-15T01:41:09;2.72;;;1.45;;
74344;SDS011;62776;50.518;6.732;2023-04-15T01:43:55;1.70;;;1.08;;
74344;SDS011;62776;50.518;6.732;2023-04-15T01:46:41;3.60;;;1.45;;
74344;SDS011;62776;50.518;6.732;2023-04-15T01:49:28;2.35;;;1.60;;
74344;SDS011;62776;50.518;6.732;2023-04-15T01:52:16;2.85;;;1.30;;
74344;SDS011;62776;50.518;6.732;2023-04-15T01:55:05;2.92;;;1.15;;
74344;SDS011;62776;50.518;6.732;2023-04-15T01:57:33;1.85;;;1.58;;
74344;SDS011;62776;50.518;6.732;2023-04-15T02:00:25;1.33;;;0.90;;
74344;SDS011;62776;50.518;6.732;2023-04-15T02:03:14;1.77;;;1.10;;
74344;SDS011;62776;50.518;6.732;2023-04-15T02:08:45;3.28;;;1.60;;
74344;SDS011;62776;50.518;6.732;2023-04-15T02:11:46;5.35;;;1.52;;
74344;SDS011;62776;50.518;6.732;2023-04-15T02:14:34;2.70;;;1.60;;
74344;SDS011;62776;50.518;6.732;2023-04-15T02:17:20;2.40;;;1.45;;
74344;SDS011;62776;50.518;6.732;2023-04-15T02:20:07;2.25;;;1.15;;
74344;SDS011;62776;50.518;6.732;2023-04-15T02:23:03;2.10;;;1.20;;
74344;SDS011;62776;50.518;6.732;2023-04-15T02:30:50;1.83;;;1.08;;
74344;SDS011;62776;50.518;6.732;2023-04-15T02:33:38;2.33;;;1.27;;
74344;SDS011;62776;50.518;6.732;2023-04-15T02:36:25;3.00;;;1.50;;
74344;SDS011;62776;50.518;6.732;2023-04-15T02:41:34;1.73;;;1.15;;
74344;SDS011;62776;50.518;6.732;2023-04-15T02:44:20;1.70;;;1.10;;
74344;SDS011;62776;50.518;6.732;2023-04-15T02:47:10;4.85;;;1.40;;
74344;SDS011;62776;50.518;6.732;2023-04-15T02:50:03;1.88;;;1.10;;
74344;SDS011;62776;50.518;6.732;2023-04-15T02:52:59;2.25;;;1.60;;
74344;SDS011;62776;50.518;6.732;2023-04-15T02:55:28;3.40;;;1.02;;
74344;SDS011;62776;50.518;6.732;2023-04-15T02:58:15;2.10;;;1.17;;
74344;SDS011;62776;50.518;6.732;2023-04-15T03:01:01;1.60;;;1.00;;
74344;SDS011;62776;50.518;6.732;2023-04-15T03:03:48;2.80;;;1.13;;
74344;SDS011;62776;50.518;6.732;2023-04-15T03:06:34;1.27;;;1.10;;
74344;SDS011;62776;50.518;6.732;2023-04-15T03:11:57;1.73;;;1.30;;
74344;SDS011;62776;50.518;6.732;2023-04-15T03:14:46;1.48;;;1.33;;
74344;SDS011;62776;50.518;6.732;2023-04-15T03:17:32;2.40;;;1.45;;
74344;SDS011;62776;50.518;6.732;2023-04-15T03:20:18;2.25;;;1.35;;
74344;SDS011;62776;50.518;6.732;2023-04-15T03:23:06;4.68;;;1.85;;
74344;SDS011;62776;50.518;6.732;2023-04-15T03:25:54;4.53;;;1.33;;
74344;SDS011;62776;50.518;6.732;2023-04-15T03:28:42;2.97;;;1.73;;
74344;SDS011;62776;50.518;6.732;2023-04-15T03:31:28;4.63;;;1.38;;
74344;SDS011;62776;50.518;6.732;2023-04-15T03:34:15;4.78;;;1.60;;
74344;SDS011;62776;50.518;6.732;2023-04-15T03:37:18;2.42;;;1.33;;
74344;SDS011;62776;50.518;6.732;2023-04-15T03:40:04;2.20;;;1.65;;
74344;SDS011;62776;50.518;6.732;2023-04-15T03:42:51;2.10;;;1.48;;
74344;SDS011;62776;50.518;6.732;2023-04-15T03:45:39;5.13;;;1.60;;
74344;SDS011;62776;50.518;6.732;2023-04-15T03:48:26;4.25;;;1.55;;
74344;SDS011;62776;50.518;6.732;2023-04-15T03:51:15;2.33;;;1.60;;
74344;SDS011;62776;50.518;6.732;2023-04-15T03:54:03;2.05;;;1.58;;
74344;SDS011;62776;50.518;6.732;2023-04-15T03:56:49;2.03;;;1.38;;
74344;SDS011;62776;50.518;6.732;2023-04-15T03:59:38;3.72;;;1.70;;
74344;SDS011;62776;50.518;6.732;2023-04-15T04:02:26;2.85;;;1.60;;
74344;SDS011;62776;50.518;6.732;2023-04-15T04:05:15;2.95;;;1.45;;
74344;SDS011;62776;50.518;6.732;2023-04-15T04:08:03;4.32;;;1.50;;
74344;SDS011;62776;50.518;6.732;2023-04-15T04:10:50;6.57;;;2.42;;
74344;SDS011;62776;50.518;6.732;2023-04-15T04:13:41;2.60;;;1.30;;
74344;SDS011;62776;50.518;6.732;2023-04-15T04:16:28;3.72;;;1.50;;
74344;SDS011;62776;50.518;6.732;2023-04-15T04:19:17;1.85;;;1.25;;
74344;SDS011;62776;50.518;6.732;2023-04-15T04:22:04;3.00;;;1.80;;
74344;SDS011;62776;50.518;6.732;2023-04-15T04:24:50;2.50;;;1.40;;
74344;SDS011;62776;50.518;6.732;2023-04-15T04:27:46;1.65;;;1.35;;
74344;SDS011;62776;50.518;6.732;2023-04-15T04:30:33;5.00;;;1.80;;
74344;SDS011;62776;50.518;6.732;2023-04-15T04:33:24;3.03;;;1.43;;
74344;SDS011;62776;50.518;6.732;2023-04-15T04:36:10;3.70;;;1.85;;
74344;SDS011;62776;50.518;6.732;2023-04-15T04:38:59;3.17;;;1.70;;
74344;SDS011;62776;50.518;6.732;2023-04-15T04:41:46;1.60;;;1.42;;
74344;SDS011;62776;50.518;6.732;2023-04-15T04:44:32;3.83;;;1.27;;
74344;SDS011;62776;50.518;6.732;2023-04-15T04:47:31;4.93;;;1.27;;
74344;SDS011;62776;50.518;6.732;2023-04-15T04:50:17;3.10;;;1.67;;
74344;SDS011;62776;50.518;6.732;2023-04-15T04:53:04;3.08;;;1.13;;
74344;SDS011;62776;50.518;6.732;2023-04-15T04:55:54;3.97;;;1.52;;
74344;SDS011;62776;50.518;6.732;2023-04-15T04:58:42;4.63;;;1.35;;
74344;SDS011;62776;50.518;6.732;2023-04-15T05:01:37;4.15;;;1.60;;
74344;SDS011;62776;50.518;6.732;2023-04-15T05:04:30;3.15;;;1.90;;
74344;SDS011;62776;50.518;6.732;2023-04-15T05:10:09;3.35;;;1.63;;
74344;SDS011;62776;50.518;6.732;2023-04-15T05:12:59;2.60;;;1.65;;
74344;SDS011;62776;50.518;6.732;2023-04-15T05:15:45;3.67;;;1.92;;
74344;SDS011;62776;50.518;6.732;2023-04-15T05:18:37;3.40;;;2.00;;
74344;SDS011;62776;50.518;6.732;2023-04-15T05:21:26;3.38;;;1.88;;
74344;SDS011;62776;50.518;6.732;2023-04-15T05:24:14;3.38;;;2.22;;
74344;SDS011;62776;50.518;6.732;2023-04-15T05:27:15;2.75;;;1.63;;
74344;SDS011;62776;50.518;6.732;2023-04-15T05:30:04;1.98;;;1.55;;
74344;SDS011;62776;50.518;6.732;2023-04-15T05:32:54;3.47;;;1.55;;
74344;SDS011;62776;50.518;6.732;2023-04-15T05:35:48;2.45;;;1.88;;
74344;SDS011;62776;50.518;6.732;2023-04-15T05:38:37;3.08;;;1.48;;
74344;SDS011;62776;50.518;6.732;2023-04-15T05:41:32;3.58;;;1.65;;
74344;SDS011;62776;50.518;6.732;2023-04-15T05:44:18;2.47;;;1.30;;
74344;SDS011;62776;50.518;6.732;2023-04-15T05:47:06;2.63;;;1.35;;
74344;SDS011;62776;50.518;6.732;2023-04-15T05:49:52;3.42;;;1.67;;
74344;SDS011;62776;50.518;6.732;2023-04-15T05:52:39;3.08;;;1.80;;
74344;SDS011;62776;50.518;6.732;2023-04-15T05:55:26;5.40;;;1.70;;
74344;SDS011;62776;50.518;6.732;2023-04-15T05:58:12;3.75;;;1.40;;
74344;SDS011;62776;50.518;6.732;2023-04-15T06:00:59;3.50;;;1.40;;
74344;SDS011;62776;50.518;6.732;2023-04-15T06:03:56;2.13;;;1.25;;
74344;SDS011;62776;50.518;6.732;2023-04-15T06:06:42;2.33;;;1.63;;
74344;SDS011;62776;50.518;6.732;2023-04-15T06:09:35;3.60;;;1.77;;
74344;SDS011;62776;50.518;6.732;2023-04-15T06:12:21;2.85;;;2.00;;
74344;SDS011;62776;50.518;6.732;2023-04-15T06:15:08;2.78;;;1.60;;
74344;SDS011;62776;50.518;6.732;2023-04-15T06:18:01;2.90;;;1.48;;
74344;SDS011;62776;50.518;6.732;2023-04-15T06:20:48;3.50;;;1.77;;
74344;SDS011;62776;50.518;6.732;2023-04-15T06:23:36;2.42;;;1.30;;
74344;SDS011;62776;50.518;6.732;2023-04-15T06:26:25;3.75;;;2.10;;
74344;SDS011;62776;50.518;6.732;2023-04-15T06:29:14;4.47;;;2.53;;
74344;SDS011;62776;50.518;6.732;2023-04-15T06:32:01;3.65;;;1.67;;
74344;SDS011;62776;50.518;6.732;2023-04-15T06:34:47;6.53;;;2.97;;
74344;SDS011;62776;50.518;6.732;2023-04-15T06:37:36;3.95;;;2.03;;
74344;SDS011;62776;50.518;6.732;2023-04-15T06:40:22;2.75;;;1.92;;
74344;SDS011;62776;50.518;6.732;2023-04-15T06:43:09;6.13;;;2.92;;
74344;SDS011;62776;50.518;6.732;2023-04-15T06:45:58;2.67;;;1.80;;
74344;SDS011;62776;50.518;6.732;2023-04-15T06:48:47;3.28;;;2.30;;
74344;SDS011;62776;50.518;6.732;2023-04-15T06:51:36;2.05;;;1.50;;
74344;SDS011;62776;50.518;6.732;2023-04-15T06:54:23;3.10;;;1.27;;
74344;SDS011;62776;50.518;6.732;2023-04-15T06:57:10;2.38;;;1.45;;
74344;SDS011;62776;50.518;6.732;2023-04-15T07:00:01;6.68;;;1.70;;
74344;SDS011;62776;50.518;6.732;2023-04-15T07:02:50;9.90;;;1.67;;
74344;SDS011;62776;50.518;6.732;2023-04-15T07:05:41;2.65;;;1.27;;
74344;SDS011;62776;50.518;6.732;2023-04-15T07:08:31;4.80;;;1.63;;
74344;SDS011;62776;50.518;6.732;2023-04-15T07:11:19;3.33;;;1.55;;
74344;SDS011;62776;50.518;6.732;2023-04-15T07:14:05;4.15;;;1.65;;
74344;SDS011;62776;50.518;6.732;2023-04-15T07:16:51;2.33;;;1.50;;
74344;SDS011;62776;50.518;6.732;2023-04-15T07:19:38;1.77;;;1.40;;
74344;SDS011;62776;50.518;6.732;2023-04-15T07:22:33;3.00;;;1.42;;
74344;SDS011;62776;50.518;6.732;2023-04-15T07:25:19;3.03;;;1.88;;
74344;SDS011;62776;50.518;6.732;2023-04-15T07:28:09;4.13;;;2.38;;
74344;SDS011;62776;50.518;6.732;2023-04-15T07:31:05;6.00;;;2.05;;
74344;SDS011;62776;50.518;6.732;2023-04-15T07:33:52;2.15;;;1.80;;
74344;SDS011;62776;50.518;6.732;2023-04-15T07:36:40;2.90;;;1.63;;
74344;SDS011;62776;50.518;6.732;2023-04-15T07:39:30;2.25;;;1.38;;
74344;SDS011;62776;50.518;6.732;2023-04-15T07:42:20;4.10;;;1.48;;
74344;SDS011;62776;50.518;6.732;2023-04-15T07:45:06;3.10;;;1.42;;
74344;SDS011;62776;50.518;6.732;2023-04-15T07:47:55;3.15;;;1.77;;
74344;SDS011;62776;50.518;6.732;2023-04-15T07:50:41;3.00;;;1.67;;
74344;SDS011;62776;50.518;6.732;2023-04-15T07:53:28;3.58;;;1.70;;
74344;SDS011;62776;50.518;6.732;2023-04-15T07:56:16;3.47;;;1.63;;
74344;SDS011;62776;50.518;6.732;2023-04-15T07:59:02;2.47;;;1.30;;
74344;SDS011;62776;50.518;6.732;2023-04-15T08:01:52;2.83;;;1.63;;
74344;SDS011;62776;50.518;6.732;2023-04-15T08:04:39;2.30;;;1.70;;
74344;SDS011;62776;50.518;6.732;2023-04-15T08:07:31;2.67;;;1.43;;
74344;SDS011;62776;50.518;6.732;2023-04-15T08:10:23;4.97;;;2.47;;
74344;SDS011;62776;50.518;6.732;2023-04-15T08:13:17;4.85;;;1.65;;
74344;SDS011;62776;50.518;6.732;2023-04-15T08:19:06;8.65;;;1.90;;
74344;SDS011;62776;50.518;6.732;2023-04-15T08:21:53;4.38;;;1.83;;
74344;SDS011;62776;50.518;6.732;2023-04-15T08:24:41;2.60;;;1.90;;
74344;SDS011;62776;50.518;6.732;2023-04-15T08:27:28;3.45;;;2.00;;
74344;SDS011;62776;50.518;6.732;2023-04-15T08:30:15;5.85;;;2.55;;
74344;SDS011;62776;50.518;6.732;2023-04-15T08:33:03;4.63;;;2.65;;
74344;SDS011;62776;50.518;6.732;2023-04-15T08:35:50;4.22;;;3.30;;
74344;SDS011;62776;50.518;6.732;2023-04-15T08:38:38;2.80;;;2.38;;
74344;SDS011;62776;50.518;6.732;2023-04-15T08:41:25;4.43;;;3.13;;
74344;SDS011;62776;50.518;6.732;2023-04-15T08:44:23;3.50;;;3.20;;
74344;SDS011;62776;50.518;6.732;2023-04-15T08:47:13;5.05;;;3.78;;
74344;SDS011;62776;50.518;6.732;2023-04-15T08:50:04;3.78;;;3.17;;
74344;SDS011;62776;50.518;6.732;2023-04-15T08:52:57;4.03;;;3.72;;
74344;SDS011;62776;50.518;6.732;2023-04-15T08:55:49;4.85;;;3.33;;
74344;SDS011;62776;50.518;6.732;2023-04-15T08:58:43;4.15;;;3.75;;
74344;SDS011;62776;50.518;6.732;2023-04-15T09:01:39;4.60;;;3.80;;
74344;SDS011;62776;50.518;6.732;2023-04-15T09:04:27;4.07;;;3.65;;
74344;SDS011;62776;50.518;6.732;2023-04-15T09:07:13;4.40;;;4.00;;
74344;SDS011;62776;50.518;6.732;2023-04-15T09:10:00;6.05;;;4.38;;
74344;SDS011;62776;50.518;6.732;2023-04-15T09:12:50;5.55;;;4.78;;
74344;SDS011;62776;50.518;6.732;2023-04-15T09:15:39;7.05;;;4.60;;
74344;SDS011;62776;50.518;6.732;2023-04-15T09:18:26;4.35;;;3.90;;
74344;SDS011;62776;50.518;6.732;2023-04-15T09:21:21;5.45;;;4.00;;
74344;SDS011;62776;50.518;6.732;2023-04-15T09:24:10;4.40;;;3.53;;
74344;SDS011;62776;50.518;6.732;2023-04-15T09:26:57;4.35;;;3.83;;
74344;SDS011;62776;50.518;6.732;2023-04-15T09:29:53;5.00;;;3.70;;
74344;SDS011;62776;50.518;6.732;2023-04-15T09:35:59;3.60;;;3.30;;
74344;SDS011;62776;50.518;6.732;2023-04-15T09:38:59;4.68;;;4.20;;
74344;SDS011;62776;50.518;6.732;2023-04-15T09:42:04;4.10;;;3.70;;
74344;SDS011;62776;50.518;6.732;2023-04-15T09:44:55;5.00;;;3.97;;
74344;SDS011;62776;50.518;6.732;2023-04-15T09:48:15;4.32;;;3.97;;
74344;SDS011;62776;50.518;6.732;2023-04-15T09:51:11;4.38;;;3.97;;
74344;SDS011;62776;50.518;6.732;2023-04-15T09:53:58;8.02;;;3.92;;
74344;SDS011;62776;50.518;6.732;2023-04-15T09:56:47;8.20;;;4.70;;
74344;SDS011;62776;50.518;6.732;2023-04-15T09:59:36;5.32;;;4.18;;
74344;SDS011;62776;50.518;6.732;2023-04-15T10:02:26;4.90;;;4.40;;
74344;SDS011;62776;50.518;6.732;2023-04-15T10:05:16;6.57;;;5.28;;
74344;SDS011;62776;50.518;6.732;2023-04-15T10:08:03;8.48;;;5.50;;
74344;SDS011;62776;50.518;6.732;2023-04-15T10:10:52;6.03;;;4.88;;
74344;SDS011;62776;50.518;6.732;2023-04-15T10:13:45;8.70;;;5.18;;
74344;SDS011;62776;50.518;6.732;2023-04-15T10:16:34;4.80;;;4.13;;
74344;SDS011;62776;50.518;6.732;2023-04-15T10:19:27;5.80;;;5.25;;
74344;SDS011;62776;50.518;6.732;2023-04-15T10:22:21;5.63;;;5.13;;
74344;SDS011;62776;50.518;6.732;2023-04-15T10:25:17;5.45;;;4.68;;
74344;SDS011;62776;50.518;6.732;2023-04-15T10:28:07;7.35;;;5.15;;
74344;SDS011;62776;50.518;6.732;2023-04-15T10:31:07;5.22;;;4.70;;
74344;SDS011;62776;50.518;6.732;2023-04-15T10:34:03;5.75;;;5.07;;
74344;SDS011;62776;50.518;6.732;2023-04-15T10:36:50;5.72;;;4.68;;
74344;SDS011;62776;50.518;6.732;2023-04-15T10:39:46;4.40;;;4.10;;
74344;SDS011;62776;50.518;6.732;2023-04-15T10:42:40;4.50;;;3.78;;
74344;SDS011;62776;50.518;6.732;2023-04-15T10:45:35;3.95;;;3.35;;
74344;SDS011;62776;50.518;6.732;2023-04-15T10:48:25;2.35;;;2.15;;
74344;SDS011;62776;50.518;6.732;2023-04-15T10:51:28;2.13;;;1.70;;
74344;SDS011;62776;50.518;6.732;2023-04-15T10:54:30;2.03;;;1.90;;
74344;SDS011;62776;50.518;6.732;2023-04-15T10:57:22;4.05;;;2.65;;
74344;SDS011;62776;50.518;6.732;2023-04-15T11:00:24;2.03;;;1.70;;
74344;SDS011;62776;50.518;6.732;2023-04-15T11:03:15;4.68;;;2.40;;
74344;SDS011;62776;50.518;6.732;2023-04-15T11:06:02;3.47;;;2.00;;
74344;SDS011;62776;50.518;6.732;2023-04-15T11:08:58;2.15;;;2.00;;
74344;SDS011;62776;50.518;6.732;2023-04-15T11:12:09;2.95;;;2.63;;
74344;SDS011;62776;50.518;6.732;2023-04-15T11:14:56;3.10;;;2.58;;
74344;SDS011;62776;50.518;6.732;2023-04-15T11:17:42;2.92;;;2.42;;
74344;SDS011;62776;50.518;6.732;2023-04-15T11:20:29;2.38;;;2.17;;
74344;SDS011;62776;50.518;6.732;2023-04-15T11:23:18;7.45;;;2.38;;
74344;SDS011;62776;50.518;6.732;2023-04-15T11:26:12;2.17;;;1.98;;
74344;SDS011;62776;50.518;6.732;2023-04-15T11:29:00;3.28;;;1.83;;
74344;SDS011;62776;50.518;6.732;2023-04-15T11:31:46;1.92;;;1.65;;
74344;SDS011;62776;50.518;6.732;2023-04-15T11:34:33;1.90;;;1.80;;
74344;SDS011;62776;50.518;6.732;2023-04-15T11:37:26;2.20;;;2.00;;
74344;SDS011;62776;50.518;6.732;2023-04-15T11:40:16;3.50;;;3.15;;
74344;SDS011;62776;50.518;6.732;2023-04-15T11:43:12;4.10;;;3.03;;
74344;SDS011;62776;50.518;6.732;2023-04-15T11:46:08;3.08;;;2.88;;
74344;SDS011;62776;50.518;6.732;2023-04-15T11:48:54;3.67;;;2.92;;
74344;SDS011;62776;50.518;6.732;2023-04-15T11:51:41;3.33;;;3.00;;
74344;SDS011;62776;50.518;6.732;2023-04-15T11:54:34;3.95;;;3.60;;
74344;SDS011;62776;50.518;6.732;2023-04-15T11:57:29;3.33;;;3.05;;
74344;SDS011;62776;50.518;6.732;2023-04-15T12:00:23;3.00;;;2.80;;
74344;SDS011;62776;50.518;6.732;2023-04-15T12:03:13;2.83;;;2.20;;
74344;SDS011;62776;50.518;6.732;2023-04-15T12:09:08;4.40;;;3.10;;
74344;SDS011;62776;50.518;6.732;2023-04-15T12:14:50;3.88;;;3.25;;
74344;SDS011;62776;50.518;6.732;2023-04-15T12:17:38;5.28;;;3.10;;
74344;SDS011;62776;50.518;6.732;2023-04-15T12:20:26;4.15;;;3.42;;
74344;SDS011;62776;50.518;6.732;2023-04-15T12:23:20;4.65;;;3.40;;
74344;SDS011;62776;50.518;6.732;2023-04-15T12:26:06;3.03;;;2.83;;
74344;SDS011;62776;50.518;6.732;2023-04-15T12:28:54;3.42;;;3.13;;
74344;SDS011;62776;50.518;6.732;2023-04-15T12:31:58;3.72;;;2.95;;
74344;SDS011;62776;50.518;6.732;2023-04-15T12:34:56;4.05;;;2.72;;
74344;SDS011;62776;50.518;6.732;2023-04-15T12:37:42;3.90;;;3.17;;
74344;SDS011;62776;50.518;6.732;2023-04-15T12:40:29;4.43;;;3.13;;
74344;SDS011;62776;50.518;6.732;2023-04-15T12:43:16;4.20;;;3.30;;
74344;SDS011;62776;50.518;6.732;2023-04-15T12:46:03;3.15;;;2.85;;
74344;SDS011;62776;50.518;6.732;2023-04-15T12:48:52;11.32;;;4.18;;
74344;SDS011;62776;50.518;6.732;2023-04-15T12:51:39;3.45;;;3.22;;
74344;SDS011;62776;50.518;6.732;2023-04-15T12:54:29;4.45;;;4.13;;
74344;SDS011;62776;50.518;6.732;2023-04-15T12:57:25;4.20;;;3.90;;
74344;SDS011;62776;50.518;6.732;2023-04-15T13:00:14;4.85;;;4.50;;
74344;SDS011;62776;50.518;6.732;2023-04-15T13:03:00;5.22;;;4.82;;
74344;SDS011;62776;50.518;6.732;2023-04-15T13:05:47;6.03;;;5.10;;
74344;SDS011;62776;50.518;6.732;2023-04-15T13:08:33;6.72;;;5.28;;
74344;SDS011;62776;50.518;6.732;2023-04-15T13:11:21;6.25;;;5.80;;
74344;SDS011;62776;50.518;6.732;2023-04-15T13:14:07;5.53;;;5.13;;
74344;SDS011;62776;50.518;6.732;2023-04-15T13:16:55;6.75;;;5.85;;
74344;SDS011;62776;50.518;6.732;2023-04-15T13:19:42;6.13;;;5.65;;
74344;SDS011;62776;50.518;6.732;2023-04-15T13:22:29;6.38;;;5.78;;
74344;SDS011;62776;50.518;6.732;2023-04-15T13:25:15;6.63;;;6.05;;
74344;SDS011;62776;50.518;6.732;2023-04-15T13:28:02;6.05;;;5.63;;
74344;SDS011;62776;50.518;6.732;2023-04-15T13:30:52;6.22;;;5.72;;
74344;SDS011;62776;50.518;6.732;2023-04-15T13:33:41;7.28;;;6.78;;
74344;SDS011;62776;50.518;6.732;2023-04-15T13:36:27;7.50;;;6.90;;
74344;SDS011;62776;50.518;6.732;2023-04-15T13:39:17;6.95;;;6.45;;
74344;SDS011;62776;50.518;6.732;2023-04-15T13:42:03;7.15;;;6.65;;
74344;SDS011;62776;50.518;6.732;2023-04-15T13:44:56;7.32;;;6.80;;
74344;SDS011;62776;50.518;6.732;2023-04-15T13:47:44;7.22;;;6.72;;
74344;SDS011;62776;50.518;6.732;2023-04-15T13:50:31;8.30;;;7.70;;
74344;SDS011;62776;50.518;6.732;2023-04-15T13:53:17;6.75;;;6.25;;
74344;SDS011;62776;50.518;6.732;2023-04-15T13:56:04;6.00;;;5.50;;
74344;SDS011;62776;50.518;6.732;2023-04-15T13:58:53;5.82;;;5.43;;
74344;SDS011;62776;50.518;6.732;2023-04-15T14:01:44;4.95;;;4.55;;
74344;SDS011;62776;50.518;6.732;2023-04-15T14:04:37;5.03;;;4.63;;
74344;SDS011;62776;50.518;6.732;2023-04-15T14:07:23;5.10;;;4.70;;
74344;SDS011;62776;50.518;6.732;2023-04-15T14:10:17;4.95;;;4.55;;
74344;SDS011;62776;50.518;6.732;2023-04-15T14:13:04;4.45;;;4.10;;
74344;SDS011;62776;50.518;6.732;2023-04-15T14:15:51;3.53;;;3.30;;
74344;SDS011;62776;50.518;6.732;2023-04-15T14:18:38;5.65;;;2.97;;
74344;SDS011;62776;50.518;6.732;2023-04-15T14:21:27;3.38;;;3.10;;
74344;SDS011;62776;50.518;6.732;2023-04-15T14:24:17;3.60;;;3.30;;
74344;SDS011;62776;50.518;6.732;2023-04-15T14:27:06;4.28;;;3.88;;
74344;SDS011;62776;50.518;6.732;2023-04-15T14:29:53;4.30;;;3.90;;
74344;SDS011;62776;50.518;6.732;2023-04-15T14:32:39;4.10;;;3.80;;
74344;SDS011;62776;50.518;6.732;2023-04-15T14:35:26;3.75;;;3.33;;
74344;SDS011;62776;50.518;6.732;2023-04-15T14:38:12;4.03;;;3.63;;
74344;SDS011;62776;50.518;6.732;2023-04-15T14:40:59;3.88;;;3.58;;
74344;SDS011;62776;50.518;6.732;2023-04-15T14:43:45;3.03;;;2.83;;
74344;SDS011;62776;50.518;6.732;2023-04-15T14:46:32;4.28;;;3.88;;
74344;SDS011;62776;50.518;6.732;2023-04-15T14:49:29;3.45;;;3.15;;
74344;SDS011;62776;50.518;6.732;2023-04-15T14:52:16;3.50;;;3.20;;
74344;SDS011;62776;50.518;6.732;2023-04-15T14:55:08;3.05;;;2.85;;
74344;SDS011;62776;50.518;6.732;2023-04-15T14:57:56;3.63;;;3.33;;
74344;SDS011;62776;50.518;6.732;2023-04-15T15:00:51;3.38;;;3.08;;
74344;SDS011;62776;50.518;6.732;2023-04-15T15:03:40;4.05;;;3.13;;
74344;SDS011;62776;50.518;6.732;2023-04-15T15:06:28;4.75;;;2.95;;
74344;SDS011;62776;50.518;6.732;2023-04-15T15:09:18;3.20;;;2.92;;
74344;SDS011;62776;50.518;6.732;2023-04-15T15:12:07;5.07;;;2.95;;
74344;SDS011;62776;50.518;6.732;2023-04-15T15:14:54;2.85;;;2.65;;
74344;SDS011;62776;50.518;6.732;2023-04-15T15:17:54;2.78;;;2.58;;
74344;SDS011;62776;50.518;6.732;2023-04-15T15:20:42;2.78;;;2.42;;
74344;SDS011;62776;50.518;6.732;2023-04-15T15:23:43;2.38;;;2.17;;
74344;SDS011;62776;50.518;6.732;2023-04-15T15:26:30;3.28;;;2.45;;
74344;SDS011;62776;50.518;6.732;2023-04-15T15:29:18;3.10;;;2.80;;
74344;SDS011;62776;50.518;6.732;2023-04-15T15:32:18;2.78;;;2.58;;
74344;SDS011;62776;50.518;6.732;2023-04-15T15:35:07;2.75;;;2.55;;
74344;SDS011;62776;50.518;6.732;2023-04-15T15:37:55;3.67;;;2.50;;
74344;SDS011;62776;50.518;6.732;2023-04-15T15:40:48;2.97;;;2.63;;
74344;SDS011;62776;50.518;6.732;2023-04-15T15:43:34;3.22;;;2.50;;
74344;SDS011;62776;50.518;6.732;2023-04-15T15:46:21;2.83;;;2.60;;
74344;SDS011;62776;50.518;6.732;2023-04-15T15:49:21;3.05;;;2.75;;
74344;SDS011;62776;50.518;6.732;2023-04-15T15:52:10;4.15;;;3.10;;
74344;SDS011;62776;50.518;6.732;2023-04-15T15:54:57;3.47;;;3.20;;
74344;SDS011;62776;50.518;6.732;2023-04-15T15:57:44;3.17;;;2.88;;
74344;SDS011;62776;50.518;6.732;2023-04-15T16:00:30;3.28;;;2.97;;
74344;SDS011;62776;50.518;6.732;2023-04-15T16:03:19;3.78;;;3.42;;
74344;SDS011;62776;50.518;6.732;2023-04-15T16:06:13;3.55;;;3.25;;
74344;SDS011;62776;50.518;6.732;2023-04-15T16:09:02;3.67;;;3.00;;
74344;SDS011;62776;50.518;6.732;2023-04-15T16:11:49;3.67;;;3.38;;
74344;SDS011;62776;50.518;6.732;2023-04-15T16:14:35;4.57;;;3.17;;
74344;SDS011;62776;50.518;6.732;2023-04-15T16:17:24;4.53;;;2.85;;
74344;SDS011;62776;50.518;6.732;2023-04-15T16:20:11;3.22;;;2.80;;
74344;SDS011;62776;50.518;6.732;2023-04-15T16:23:08;10.10;;;7.45;;
74344;SDS011;62776;50.518;6.732;2023-04-15T16:25:57;7.53;;;6.32;;
74344;SDS011;62776;50.518;6.732;2023-04-15T16:28:54;5.50;;;4.05;;
74344;SDS011;62776;50.518;6.732;2023-04-15T16:31:41;15.98;;;12.98;;
74344;SDS011;62776;50.518;6.732;2023-04-15T16:34:28;8.38;;;7.57;;
74344;SDS011;62776;50.518;6.732;2023-04-15T16:37:19;5.00;;;4.55;;
74344;SDS011;62776;50.518;6.732;2023-04-15T16:40:10;6.38;;;5.70;;
74344;SDS011;62776;50.518;6.732;2023-04-15T16:43:06;5.18;;;4.68;;
74344;SDS011;62776;50.518;6.732;2023-04-15T16:45:57;3.92;;;3.55;;
74344;SDS011;62776;50.518;6.732;2023-04-15T16:48:55;4.35;;;3.72;;
74344;SDS011;62776;50.518;6.732;2023-04-15T16:54:43;3.55;;;3.25;;
74344;SDS011;62776;50.518;6.732;2023-04-15T16:57:31;3.38;;;2.90;;
74344;SDS011;62776;50.518;6.732;2023-04-15T17:00:17;4.50;;;3.20;;
74344;SDS011;62776;50.518;6.732;2023-04-15T17:03:10;3.90;;;3.47;;
74344;SDS011;62776;50.518;6.732;2023-04-15T17:06:02;3.42;;;3.03;;
74344;SDS011;62776;50.518;6.732;2023-04-15T17:08:57;3.88;;;3.50;;
74344;SDS011;62776;50.518;6.732;2023-04-15T17:11:48;3.70;;;3.40;;
74344;SDS011;62776;50.518;6.732;2023-04-15T17:14:34;6.13;;;3.92;;
74344;SDS011;62776;50.518;6.732;2023-04-15T17:17:22;3.85;;;3.35;;
74344;SDS011;62776;50.518;6.732;2023-04-15T17:20:12;5.70;;;3.53;;
74344;SDS011;62776;50.518;6.732;2023-04-15T17:23:05;4.55;;;3.13;;
74344;SDS011;62776;50.518;6.732;2023-04-15T17:25:54;2.85;;;2.65;;
74344;SDS011;62776;50.518;6.732;2023-04-15T17:28:40;3.55;;;3.13;;
74344;SDS011;62776;50.518;6.732;2023-04-15T17:31:28;4.43;;;4.03;;
74344;SDS011;62776;50.518;6.732;2023-04-15T17:34:20;3.30;;;3.00;;
74344;SDS011;62776;50.518;6.732;2023-04-15T17:37:07;3.30;;;3.10;;
74344;SDS011;62776;50.518;6.732;2023-04-15T17:39:55;5.00;;;2.95;;
74344;SDS011;62776;50.518;6.732;2023-04-15T17:42:41;2.95;;;2.75;;
74344;SDS011;62776;50.518;6.732;2023-04-15T17:45:28;3.03;;;2.83;;